sensor_id;sensor_type;location;lat;lon;timestamp;P1;durP1;ratioP1;P2;durP2;ratioP2
16994;SDS011;8614;48.522;9.206;2022-10-22T00:01:38;4.37;;;3.93;;
16994;SDS011;8614;48.522;9.206;2022-10-22T00:04:05;12.57;;;11.80;;
16994;SDS011;8614;48.522;9.206;2022-10-22T00:06:32;5.83;;;5.47;;
16994;SDS011;8614;48.522;9.206;2022-10-22T00:08:59;3.77;;;3.47;;
16994;SDS011;8614;48.522;9.206;2022-10-22T00:11:27;7.00;;;6.50;;
16994;SDS011;8614;48.522;9.206;2022-10-22T00:13:54;5.57;;;5.17;;
16994;SDS011;8614;48.522;9.206;2022-10-22T00:16:22;7.83;;;7.33;;
16994;SDS011;8614;48.522;9.206;2022-10-22T00:18:49;4.50;;;4.20;;
16994;SDS011;8614;48.522;9.206;2022-10-22T00:21:16;3.27;;;3.07;;
16994;SDS011;8614;48.522;9.206;2022-10-22T00:23:43;4.37;;;4.07;;
16994;SDS011;8614;48.522;9.206;2022-10-22T00:26:09;6.63;;;6.17;;
16994;SDS011;8614;48.522;9.206;2022-10-22T00:28:38;6.60;;;6.20;;
16994;SDS011;8614;48.522;9.206;2022-10-22T00:31:05;7.17;;;6.47;;
16994;SDS011;8614;48.522;9.206;2022-10-22T00:33:32;5.97;;;5.57;;
16994;SDS011;8614;48.522;9.206;2022-10-22T00:35:59;4.53;;;4.13;;
16994;SDS011;8614;48.522;9.206;2022-10-22T00:38:26;4.07;;;3.60;;
16994;SDS011;8614;48.522;9.206;2022-10-22T00:40:53;7.60;;;6.97;;
16994;SDS011;8614;48.522;9.206;2022-10-22T00:43:20;7.73;;;7.13;;
16994;SDS011;8614;48.522;9.206;2022-10-22T00:45:48;4.97;;;4.67;;
16994;SDS011;8614;48.522;9.206;2022-10-22T00:48:17;4.60;;;4.30;;
16994;SDS011;8614;48.522;9.206;2022-10-22T00:50:46;8.13;;;7.63;;
16994;SDS011;8614;48.522;9.206;2022-10-22T00:53:19;6.93;;;6.43;;
16994;SDS011;8614;48.522;9.206;2022-10-22T00:55:50;4.80;;;4.50;;
16994;SDS011;8614;48.522;9.206;2022-10-22T00:58:19;5.20;;;4.90;;
16994;SDS011;8614;48.522;9.206;2022-10-22T01:00:50;13.13;;;12.33;;
16994;SDS011;8614;48.522;9.206;2022-10-22T01:03:18;3.43;;;3.23;;
16994;SDS011;8614;48.522;9.206;2022-10-22T01:05:45;4.97;;;4.60;;
16994;SDS011;8614;48.522;9.206;2022-10-22T01:08:21;5.67;;;5.27;;
16994;SDS011;8614;48.522;9.206;2022-10-22T01:10:55;2.83;;;2.73;;
16994;SDS011;8614;48.522;9.206;2022-10-22T01:13:34;3.97;;;3.67;;
16994;SDS011;8614;48.522;9.206;2022-10-22T01:16:10;4.53;;;4.23;;
16994;SDS011;8614;48.522;9.206;2022-10-22T01:18:42;4.07;;;3.87;;
16994;SDS011;8614;48.522;9.206;2022-10-22T01:21:17;3.40;;;3.20;;
16994;SDS011;8614;48.522;9.206;2022-10-22T01:24:00;4.60;;;4.30;;
16994;SDS011;8614;48.522;9.206;2022-10-22T01:27:08;3.70;;;3.40;;
16994;SDS011;8614;48.522;9.206;2022-10-22T01:29:42;4.30;;;4.00;;
16994;SDS011;8614;48.522;9.206;2022-10-22T01:32:13;3.33;;;3.13;;
16994;SDS011;8614;48.522;9.206;2022-10-22T01:34:43;7.10;;;6.73;;
16994;SDS011;8614;48.522;9.206;2022-10-22T01:37:13;3.00;;;2.90;;
16994;SDS011;8614;48.522;9.206;2022-10-22T01:39:40;7.83;;;7.23;;
16994;SDS011;8614;48.522;9.206;2022-10-22T01:42:10;5.73;;;5.43;;
16994;SDS011;8614;48.522;9.206;2022-10-22T01:44:38;2.97;;;2.77;;
16994;SDS011;8614;48.522;9.206;2022-10-22T01:47:10;3.10;;;3.00;;
16994;SDS011;8614;48.522;9.206;2022-10-22T01:52:41;4.87;;;4.53;;
16994;SDS011;8614;48.522;9.206;2022-10-22T01:55:19;4.47;;;4.07;;
16994;SDS011;8614;48.522;9.206;2022-10-22T01:57:54;5.17;;;4.80;;
16994;SDS011;8614;48.522;9.206;2022-10-22T02:00:27;5.23;;;4.83;;
16994;SDS011;8614;48.522;9.206;2022-10-22T02:02:57;6.80;;;6.40;;
16994;SDS011;8614;48.522;9.206;2022-10-22T02:05:27;5.50;;;5.17;;
16994;SDS011;8614;48.522;9.206;2022-10-22T02:08:00;6.13;;;5.73;;
16994;SDS011;8614;48.522;9.206;2022-10-22T02:10:30;4.60;;;4.30;;
16994;SDS011;8614;48.522;9.206;2022-10-22T02:12:58;4.63;;;4.33;;
16994;SDS011;8614;48.522;9.206;2022-10-22T02:15:26;3.33;;;3.13;;
16994;SDS011;8614;48.522;9.206;2022-10-22T02:17:57;3.80;;;3.60;;
16994;SDS011;8614;48.522;9.206;2022-10-22T02:20:26;4.60;;;4.23;;
16994;SDS011;8614;48.522;9.206;2022-10-22T02:22:54;3.20;;;3.00;;
16994;SDS011;8614;48.522;9.206;2022-10-22T02:25:22;6.53;;;6.13;;
16994;SDS011;8614;48.522;9.206;2022-10-22T02:27:53;3.10;;;2.90;;
16994;SDS011;8614;48.522;9.206;2022-10-22T02:30:27;6.17;;;5.83;;
16994;SDS011;8614;48.522;9.206;2022-10-22T02:32:59;6.43;;;6.03;;
16994;SDS011;8614;48.522;9.206;2022-10-22T02:35:29;7.10;;;6.70;;
16994;SDS011;8614;48.522;9.206;2022-10-22T02:37:57;6.30;;;6.00;;
16994;SDS011;8614;48.522;9.206;2022-10-22T02:40:24;7.70;;;7.20;;
16994;SDS011;8614;48.522;9.206;2022-10-22T02:42:53;4.60;;;4.30;;
16994;SDS011;8614;48.522;9.206;2022-10-22T02:45:20;5.33;;;5.07;;
16994;SDS011;8614;48.522;9.206;2022-10-22T02:47:47;5.80;;;5.40;;
16994;SDS011;8614;48.522;9.206;2022-10-22T02:50:15;6.70;;;6.30;;
16994;SDS011;8614;48.522;9.206;2022-10-22T02:52:43;4.93;;;4.10;;
16994;SDS011;8614;48.522;9.206;2022-10-22T02:55:09;5.03;;;4.77;;
16994;SDS011;8614;48.522;9.206;2022-10-22T02:57:36;5.23;;;4.93;;
16994;SDS011;8614;48.522;9.206;2022-10-22T03:00:03;6.83;;;6.30;;
16994;SDS011;8614;48.522;9.206;2022-10-22T03:02:31;6.13;;;5.83;;
16994;SDS011;8614;48.522;9.206;2022-10-22T03:04:58;4.00;;;3.80;;
16994;SDS011;8614;48.522;9.206;2022-10-22T03:07:26;4.13;;;3.93;;
16994;SDS011;8614;48.522;9.206;2022-10-22T03:09:53;4.73;;;4.40;;
16994;SDS011;8614;48.522;9.206;2022-10-22T03:12:20;3.73;;;3.53;;
16994;SDS011;8614;48.522;9.206;2022-10-22T03:14:47;4.10;;;3.90;;
16994;SDS011;8614;48.522;9.206;2022-10-22T03:17:14;5.07;;;4.77;;
16994;SDS011;8614;48.522;9.206;2022-10-22T03:19:41;3.20;;;3.00;;
16994;SDS011;8614;48.522;9.206;2022-10-22T03:22:08;3.17;;;2.97;;
16994;SDS011;8614;48.522;9.206;2022-10-22T03:24:41;3.70;;;3.50;;
16994;SDS011;8614;48.522;9.206;2022-10-22T03:27:11;4.00;;;3.80;;
16994;SDS011;8614;48.522;9.206;2022-10-22T03:29:40;3.40;;;3.20;;
16994;SDS011;8614;48.522;9.206;2022-10-22T03:32:07;3.50;;;3.30;;
16994;SDS011;8614;48.522;9.206;2022-10-22T03:34:34;6.00;;;3.67;;
16994;SDS011;8614;48.522;9.206;2022-10-22T03:37:01;8.20;;;7.63;;
16994;SDS011;8614;48.522;9.206;2022-10-22T03:39:28;3.50;;;3.30;;
16994;SDS011;8614;48.522;9.206;2022-10-22T03:41:59;3.27;;;3.13;;
16994;SDS011;8614;48.522;9.206;2022-10-22T03:44:27;3.50;;;3.30;;
16994;SDS011;8614;48.522;9.206;2022-10-22T03:46:54;4.93;;;4.63;;
16994;SDS011;8614;48.522;9.206;2022-10-22T03:49:21;6.70;;;6.30;;
16994;SDS011;8614;48.522;9.206;2022-10-22T03:51:48;3.00;;;2.80;;
16994;SDS011;8614;48.522;9.206;2022-10-22T03:54:15;3.03;;;2.93;;
16994;SDS011;8614;48.522;9.206;2022-10-22T03:56:42;3.27;;;3.07;;
16994;SDS011;8614;48.522;9.206;2022-10-22T03:59:10;3.10;;;3.00;;
16994;SDS011;8614;48.522;9.206;2022-10-22T04:01:37;3.27;;;3.17;;
16994;SDS011;8614;48.522;9.206;2022-10-22T04:04:04;3.00;;;2.90;;
16994;SDS011;8614;48.522;9.206;2022-10-22T04:06:31;3.13;;;2.93;;
16994;SDS011;8614;48.522;9.206;2022-10-22T04:08:58;3.90;;;3.70;;
16994;SDS011;8614;48.522;9.206;2022-10-22T04:11:26;3.90;;;3.70;;
16994;SDS011;8614;48.522;9.206;2022-10-22T04:13:53;6.73;;;6.33;;
16994;SDS011;8614;48.522;9.206;2022-10-22T04:16:21;12.70;;;12.00;;
16994;SDS011;8614;48.522;9.206;2022-10-22T04:18:48;12.93;;;12.23;;
16994;SDS011;8614;48.522;9.206;2022-10-22T04:21:16;12.87;;;12.17;;
16994;SDS011;8614;48.522;9.206;2022-10-22T04:23:45;13.20;;;12.40;;
16994;SDS011;8614;48.522;9.206;2022-10-22T04:26:12;13.20;;;12.50;;
16994;SDS011;8614;48.522;9.206;2022-10-22T04:28:39;12.87;;;12.20;;
16994;SDS011;8614;48.522;9.206;2022-10-22T04:31:07;13.37;;;12.67;;
16994;SDS011;8614;48.522;9.206;2022-10-22T04:33:36;13.20;;;12.50;;
16994;SDS011;8614;48.522;9.206;2022-10-22T04:36:06;13.80;;;13.00;;
16994;SDS011;8614;48.522;9.206;2022-10-22T04:38:34;13.70;;;12.90;;
16994;SDS011;8614;48.522;9.206;2022-10-22T04:41:08;13.77;;;13.07;;
16994;SDS011;8614;48.522;9.206;2022-10-22T04:43:36;14.00;;;13.20;;
16994;SDS011;8614;48.522;9.206;2022-10-22T04:46:03;13.67;;;12.97;;
16994;SDS011;8614;48.522;9.206;2022-10-22T04:48:30;13.73;;;12.93;;
16994;SDS011;8614;48.522;9.206;2022-10-22T04:50:58;13.43;;;12.73;;
16994;SDS011;8614;48.522;9.206;2022-10-22T04:53:25;13.40;;;12.70;;
16994;SDS011;8614;48.522;9.206;2022-10-22T04:55:52;13.40;;;12.70;;
16994;SDS011;8614;48.522;9.206;2022-10-22T04:58:19;14.07;;;13.33;;
16994;SDS011;8614;48.522;9.206;2022-10-22T05:00:46;13.70;;;13.00;;
16994;SDS011;8614;48.522;9.206;2022-10-22T05:03:13;13.40;;;12.70;;
16994;SDS011;8614;48.522;9.206;2022-10-22T05:05:40;13.77;;;12.97;;
16994;SDS011;8614;48.522;9.206;2022-10-22T05:08:08;13.50;;;12.70;;
16994;SDS011;8614;48.522;9.206;2022-10-22T05:10:35;13.60;;;12.90;;
16994;SDS011;8614;48.522;9.206;2022-10-22T05:13:02;13.60;;;12.90;;
16994;SDS011;8614;48.522;9.206;2022-10-22T05:15:29;13.70;;;13.00;;
16994;SDS011;8614;48.522;9.206;2022-10-22T05:17:55;13.57;;;12.87;;
16994;SDS011;8614;48.522;9.206;2022-10-22T05:20:22;13.37;;;12.67;;
16994;SDS011;8614;48.522;9.206;2022-10-22T05:22:49;13.90;;;13.17;;
16994;SDS011;8614;48.522;9.206;2022-10-22T05:25:17;13.50;;;12.80;;
16994;SDS011;8614;48.522;9.206;2022-10-22T05:27:47;13.73;;;12.93;;
16994;SDS011;8614;48.522;9.206;2022-10-22T05:30:15;13.93;;;13.20;;
16994;SDS011;8614;48.522;9.206;2022-10-22T05:32:41;13.80;;;13.10;;
16994;SDS011;8614;48.522;9.206;2022-10-22T05:35:09;13.63;;;12.93;;
16994;SDS011;8614;48.522;9.206;2022-10-22T05:37:35;13.83;;;13.13;;
16994;SDS011;8614;48.522;9.206;2022-10-22T05:40:03;14.10;;;13.30;;
16994;SDS011;8614;48.522;9.206;2022-10-22T05:42:32;13.90;;;13.20;;
16994;SDS011;8614;48.522;9.206;2022-10-22T05:44:59;14.00;;;13.20;;
16994;SDS011;8614;48.522;9.206;2022-10-22T05:47:27;13.83;;;13.10;;
16994;SDS011;8614;48.522;9.206;2022-10-22T05:49:55;13.87;;;13.17;;
16994;SDS011;8614;48.522;9.206;2022-10-22T05:52:22;14.07;;;13.27;;
16994;SDS011;8614;48.522;9.206;2022-10-22T05:54:49;14.40;;;13.60;;
16994;SDS011;8614;48.522;9.206;2022-10-22T05:57:16;13.70;;;12.90;;
16994;SDS011;8614;48.522;9.206;2022-10-22T05:59:44;14.73;;;13.90;;
16994;SDS011;8614;48.522;9.206;2022-10-22T06:02:11;13.80;;;13.10;;
16994;SDS011;8614;48.522;9.206;2022-10-22T06:04:39;13.77;;;13.07;;
16994;SDS011;8614;48.522;9.206;2022-10-22T06:07:07;14.10;;;13.40;;
16994;SDS011;8614;48.522;9.206;2022-10-22T06:09:38;14.23;;;13.43;;
16994;SDS011;8614;48.522;9.206;2022-10-22T06:12:05;14.40;;;13.60;;
16994;SDS011;8614;48.522;9.206;2022-10-22T06:14:35;14.70;;;13.80;;
16994;SDS011;8614;48.522;9.206;2022-10-22T06:17:03;14.00;;;13.20;;
16994;SDS011;8614;48.522;9.206;2022-10-22T06:19:30;13.80;;;13.10;;
16994;SDS011;8614;48.522;9.206;2022-10-22T06:21:57;14.10;;;13.37;;
16994;SDS011;8614;48.522;9.206;2022-10-22T06:24:24;13.97;;;13.27;;
16994;SDS011;8614;48.522;9.206;2022-10-22T06:26:51;14.20;;;13.40;;
16994;SDS011;8614;48.522;9.206;2022-10-22T06:29:18;14.10;;;13.30;;
16994;SDS011;8614;48.522;9.206;2022-10-22T06:31:45;13.80;;;13.00;;
16994;SDS011;8614;48.522;9.206;2022-10-22T06:34:13;13.60;;;12.90;;
16994;SDS011;8614;48.522;9.206;2022-10-22T06:36:43;14.00;;;13.23;;
16994;SDS011;8614;48.522;9.206;2022-10-22T06:39:11;13.83;;;13.03;;
16994;SDS011;8614;48.522;9.206;2022-10-22T06:41:39;13.63;;;12.87;;
16994;SDS011;8614;48.522;9.206;2022-10-22T06:44:06;18.03;;;16.93;;
16994;SDS011;8614;48.522;9.206;2022-10-22T06:46:35;10.47;;;9.93;;
16994;SDS011;8614;48.522;9.206;2022-10-22T06:49:02;7.47;;;6.97;;
16994;SDS011;8614;48.522;9.206;2022-10-22T06:51:31;11.10;;;4.23;;
16994;SDS011;8614;48.522;9.206;2022-10-22T06:53:58;3.60;;;3.30;;
16994;SDS011;8614;48.522;9.206;2022-10-22T06:56:25;4.03;;;3.60;;
16994;SDS011;8614;48.522;9.206;2022-10-22T06:58:54;3.83;;;3.57;;
16994;SDS011;8614;48.522;9.206;2022-10-22T07:01:22;3.50;;;3.30;;
16994;SDS011;8614;48.522;9.206;2022-10-22T07:03:50;7.63;;;7.23;;
16994;SDS011;8614;48.522;9.206;2022-10-22T07:06:18;3.30;;;3.10;;
16994;SDS011;8614;48.522;9.206;2022-10-22T07:08:47;3.57;;;3.30;;
16994;SDS011;8614;48.522;9.206;2022-10-22T07:11:15;3.40;;;3.20;;
16994;SDS011;8614;48.522;9.206;2022-10-22T07:13:43;3.40;;;3.20;;
16994;SDS011;8614;48.522;9.206;2022-10-22T07:16:11;3.37;;;3.17;;
16994;SDS011;8614;48.522;9.206;2022-10-22T07:18:38;3.30;;;3.10;;
16994;SDS011;8614;48.522;9.206;2022-10-22T07:21:07;9.83;;;9.23;;
16994;SDS011;8614;48.522;9.206;2022-10-22T07:23:35;7.80;;;7.20;;
16994;SDS011;8614;48.522;9.206;2022-10-22T07:26:03;4.80;;;4.50;;
16994;SDS011;8614;48.522;9.206;2022-10-22T07:28:32;3.57;;;3.37;;
16994;SDS011;8614;48.522;9.206;2022-10-22T07:31:00;3.30;;;3.10;;
16994;SDS011;8614;48.522;9.206;2022-10-22T07:33:27;3.33;;;3.13;;
16994;SDS011;8614;48.522;9.206;2022-10-22T07:35:56;3.20;;;3.00;;
16994;SDS011;8614;48.522;9.206;2022-10-22T07:38:24;9.97;;;9.37;;
16994;SDS011;8614;48.522;9.206;2022-10-22T07:40:52;7.57;;;7.03;;
16994;SDS011;8614;48.522;9.206;2022-10-22T07:43:21;3.17;;;2.90;;
16994;SDS011;8614;48.522;9.206;2022-10-22T07:45:49;2.97;;;2.80;;
16994;SDS011;8614;48.522;9.206;2022-10-22T07:48:16;3.20;;;3.00;;
16994;SDS011;8614;48.522;9.206;2022-10-22T07:50:43;3.17;;;2.97;;
16994;SDS011;8614;48.522;9.206;2022-10-22T07:53:10;3.00;;;2.90;;
16994;SDS011;8614;48.522;9.206;2022-10-22T07:55:37;3.10;;;2.90;;
16994;SDS011;8614;48.522;9.206;2022-10-22T07:58:04;2.87;;;2.77;;
16994;SDS011;8614;48.522;9.206;2022-10-22T08:00:32;3.27;;;3.17;;
16994;SDS011;8614;48.522;9.206;2022-10-22T08:02:59;3.30;;;3.00;;
16994;SDS011;8614;48.522;9.206;2022-10-22T08:05:26;3.00;;;2.90;;
16994;SDS011;8614;48.522;9.206;2022-10-22T08:07:52;3.10;;;2.90;;
16994;SDS011;8614;48.522;9.206;2022-10-22T08:10:19;3.00;;;2.80;;
16994;SDS011;8614;48.522;9.206;2022-10-22T08:12:46;11.80;;;11.20;;
16994;SDS011;8614;48.522;9.206;2022-10-22T08:15:13;9.90;;;9.30;;
16994;SDS011;8614;48.522;9.206;2022-10-22T08:17:41;4.10;;;3.00;;
16994;SDS011;8614;48.522;9.206;2022-10-22T08:20:08;6.83;;;6.43;;
16994;SDS011;8614;48.522;9.206;2022-10-22T08:22:36;11.73;;;10.93;;
16994;SDS011;8614;48.522;9.206;2022-10-22T08:25:03;10.37;;;9.77;;
16994;SDS011;8614;48.522;9.206;2022-10-22T08:27:30;8.40;;;7.90;;
16994;SDS011;8614;48.522;9.206;2022-10-22T08:29:57;9.83;;;9.27;;
16994;SDS011;8614;48.522;9.206;2022-10-22T08:32:24;8.83;;;8.20;;
16994;SDS011;8614;48.522;9.206;2022-10-22T08:34:52;7.07;;;6.60;;
16994;SDS011;8614;48.522;9.206;2022-10-22T08:37:20;8.77;;;8.17;;
16994;SDS011;8614;48.522;9.206;2022-10-22T08:39:47;3.67;;;3.37;;
16994;SDS011;8614;48.522;9.206;2022-10-22T08:42:21;5.13;;;4.73;;
16994;SDS011;8614;48.522;9.206;2022-10-22T08:45:14;6.47;;;6.10;;
16994;SDS011;8614;48.522;9.206;2022-10-22T08:47:53;5.93;;;5.53;;
16994;SDS011;8614;48.522;9.206;2022-10-22T08:50:30;5.63;;;5.33;;
16994;SDS011;8614;48.522;9.206;2022-10-22T08:53:02;7.50;;;7.00;;
16994;SDS011;8614;48.522;9.206;2022-10-22T08:55:33;3.27;;;3.07;;
16994;SDS011;8614;48.522;9.206;2022-10-22T08:58:04;2.67;;;2.50;;
16994;SDS011;8614;48.522;9.206;2022-10-22T09:00:43;8.50;;;7.80;;
16994;SDS011;8614;48.522;9.206;2022-10-22T09:03:18;6.03;;;5.47;;
16994;SDS011;8614;48.522;9.206;2022-10-22T09:05:58;5.93;;;5.63;;
16994;SDS011;8614;48.522;9.206;2022-10-22T09:08:28;2.70;;;2.50;;
16994;SDS011;8614;48.522;9.206;2022-10-22T09:10:57;2.90;;;2.70;;
16994;SDS011;8614;48.522;9.206;2022-10-22T09:13:28;2.80;;;2.63;;
16994;SDS011;8614;48.522;9.206;2022-10-22T09:15:56;6.83;;;5.53;;
16994;SDS011;8614;48.522;9.206;2022-10-22T09:18:29;2.40;;;2.30;;
16994;SDS011;8614;48.522;9.206;2022-10-22T09:21:04;3.60;;;3.40;;
16994;SDS011;8614;48.522;9.206;2022-10-22T09:23:38;3.63;;;3.43;;
16994;SDS011;8614;48.522;9.206;2022-10-22T09:26:20;2.70;;;2.50;;
16994;SDS011;8614;48.522;9.206;2022-10-22T09:28:48;2.60;;;2.40;;
16994;SDS011;8614;48.522;9.206;2022-10-22T09:31:16;2.77;;;2.57;;
16994;SDS011;8614;48.522;9.206;2022-10-22T09:33:44;2.93;;;2.73;;
16994;SDS011;8614;48.522;9.206;2022-10-22T09:36:16;2.63;;;2.47;;
16994;SDS011;8614;48.522;9.206;2022-10-22T09:38:45;2.60;;;2.40;;
16994;SDS011;8614;48.522;9.206;2022-10-22T09:41:13;2.93;;;2.60;;
16994;SDS011;8614;48.522;9.206;2022-10-22T09:43:40;3.37;;;3.17;;
16994;SDS011;8614;48.522;9.206;2022-10-22T09:46:12;3.43;;;3.10;;
16994;SDS011;8614;48.522;9.206;2022-10-22T09:48:42;4.07;;;3.77;;
16994;SDS011;8614;48.522;9.206;2022-10-22T09:51:14;2.73;;;2.53;;
16994;SDS011;8614;48.522;9.206;2022-10-22T09:53:46;2.50;;;2.40;;
16994;SDS011;8614;48.522;9.206;2022-10-22T09:56:22;7.87;;;5.33;;
16994;SDS011;8614;48.522;9.206;2022-10-22T09:58:51;2.40;;;2.20;;
16994;SDS011;8614;48.522;9.206;2022-10-22T10:01:21;4.17;;;3.87;;
16994;SDS011;8614;48.522;9.206;2022-10-22T10:03:50;3.70;;;3.40;;
16994;SDS011;8614;48.522;9.206;2022-10-22T10:06:19;2.83;;;2.57;;
16994;SDS011;8614;48.522;9.206;2022-10-22T10:08:47;4.53;;;4.23;;
16994;SDS011;8614;48.522;9.206;2022-10-22T10:11:16;7.33;;;6.90;;
16994;SDS011;8614;48.522;9.206;2022-10-22T10:13:52;5.07;;;4.73;;
16994;SDS011;8614;48.522;9.206;2022-10-22T10:16:26;4.03;;;3.73;;
16994;SDS011;8614;48.522;9.206;2022-10-22T10:19:19;4.23;;;3.80;;
16994;SDS011;8614;48.522;9.206;2022-10-22T10:21:59;4.77;;;4.43;;
16994;SDS011;8614;48.522;9.206;2022-10-22T10:24:35;5.67;;;5.23;;
16994;SDS011;8614;48.522;9.206;2022-10-22T10:27:12;7.43;;;6.93;;
16994;SDS011;8614;48.522;9.206;2022-10-22T10:29:47;7.43;;;6.93;;
16994;SDS011;8614;48.522;9.206;2022-10-22T10:32:24;8.87;;;8.37;;
16994;SDS011;8614;48.522;9.206;2022-10-22T10:34:59;4.67;;;4.37;;
16994;SDS011;8614;48.522;9.206;2022-10-22T10:37:42;5.80;;;5.40;;
16994;SDS011;8614;48.522;9.206;2022-10-22T10:40:18;5.17;;;4.77;;
16994;SDS011;8614;48.522;9.206;2022-10-22T10:42:53;6.97;;;6.50;;
16994;SDS011;8614;48.522;9.206;2022-10-22T10:45:27;7.63;;;7.07;;
16994;SDS011;8614;48.522;9.206;2022-10-22T10:48:08;6.07;;;5.67;;
16994;SDS011;8614;48.522;9.206;2022-10-22T10:50:51;4.70;;;4.40;;
16994;SDS011;8614;48.522;9.206;2022-10-22T10:53:28;5.23;;;4.87;;
16994;SDS011;8614;48.522;9.206;2022-10-22T10:56:09;10.33;;;9.63;;
16994;SDS011;8614;48.522;9.206;2022-10-22T10:58:50;3.63;;;2.43;;
16994;SDS011;8614;48.522;9.206;2022-10-22T11:01:23;5.00;;;2.50;;
16994;SDS011;8614;48.522;9.206;2022-10-22T11:03:58;2.90;;;2.70;;
16994;SDS011;8614;48.522;9.206;2022-10-22T11:06:53;2.43;;;2.30;;
16994;SDS011;8614;48.522;9.206;2022-10-22T11:09:25;9.07;;;8.57;;
16994;SDS011;8614;48.522;9.206;2022-10-22T11:11:57;3.67;;;3.00;;
16994;SDS011;8614;48.522;9.206;2022-10-22T11:14:28;7.83;;;7.23;;
16994;SDS011;8614;48.522;9.206;2022-10-22T11:17:02;9.73;;;9.20;;
16994;SDS011;8614;48.522;9.206;2022-10-22T11:19:35;8.20;;;7.70;;
16994;SDS011;8614;48.522;9.206;2022-10-22T11:22:08;5.10;;;4.63;;
16994;SDS011;8614;48.522;9.206;2022-10-22T11:24:43;9.70;;;9.00;;
16994;SDS011;8614;48.522;9.206;2022-10-22T11:27:20;5.67;;;4.07;;
16994;SDS011;8614;48.522;9.206;2022-10-22T11:29:53;7.40;;;6.90;;
16994;SDS011;8614;48.522;9.206;2022-10-22T11:32:25;9.80;;;9.03;;
16994;SDS011;8614;48.522;9.206;2022-10-22T11:34:53;6.50;;;6.00;;
16994;SDS011;8614;48.522;9.206;2022-10-22T11:37:25;4.53;;;4.23;;
16994;SDS011;8614;48.522;9.206;2022-10-22T11:40:01;3.33;;;3.03;;
16994;SDS011;8614;48.522;9.206;2022-10-22T11:42:32;3.67;;;3.37;;
16994;SDS011;8614;48.522;9.206;2022-10-22T11:45:03;6.40;;;6.00;;
16994;SDS011;8614;48.522;9.206;2022-10-22T11:47:57;10.20;;;9.60;;
16994;SDS011;8614;48.522;9.206;2022-10-22T11:50:42;9.97;;;9.37;;
16994;SDS011;8614;48.522;9.206;2022-10-22T11:53:16;10.07;;;9.47;;
16994;SDS011;8614;48.522;9.206;2022-10-22T11:55:48;4.80;;;4.50;;
16994;SDS011;8614;48.522;9.206;2022-10-22T11:58:27;3.27;;;3.07;;
16994;SDS011;8614;48.522;9.206;2022-10-22T12:00:56;4.80;;;4.60;;
16994;SDS011;8614;48.522;9.206;2022-10-22T12:03:43;5.70;;;5.13;;
16994;SDS011;8614;48.522;9.206;2022-10-22T12:06:18;10.07;;;9.50;;
16994;SDS011;8614;48.522;9.206;2022-10-22T12:08:55;4.63;;;4.27;;
16994;SDS011;8614;48.522;9.206;2022-10-22T12:11:26;3.43;;;3.13;;
16994;SDS011;8614;48.522;9.206;2022-10-22T12:14:02;5.10;;;4.70;;
16994;SDS011;8614;48.522;9.206;2022-10-22T12:16:45;2.90;;;2.70;;
16994;SDS011;8614;48.522;9.206;2022-10-22T12:19:17;2.20;;;2.10;;
16994;SDS011;8614;48.522;9.206;2022-10-22T12:21:51;2.10;;;2.00;;
16994;SDS011;8614;48.522;9.206;2022-10-22T12:24:20;2.17;;;2.00;;
16994;SDS011;8614;48.522;9.206;2022-10-22T12:26:51;2.00;;;1.90;;
16994;SDS011;8614;48.522;9.206;2022-10-22T12:29:18;2.57;;;2.17;;
16994;SDS011;8614;48.522;9.206;2022-10-22T12:31:47;2.40;;;2.20;;
16994;SDS011;8614;48.522;9.206;2022-10-22T12:34:15;2.67;;;2.37;;
16994;SDS011;8614;48.522;9.206;2022-10-22T12:36:43;2.40;;;2.20;;
16994;SDS011;8614;48.522;9.206;2022-10-22T12:39:13;3.97;;;3.70;;
16994;SDS011;8614;48.522;9.206;2022-10-22T12:41:41;2.73;;;2.00;;
16994;SDS011;8614;48.522;9.206;2022-10-22T12:44:11;4.10;;;2.17;;
16994;SDS011;8614;48.522;9.206;2022-10-22T12:46:39;2.37;;;2.27;;
16994;SDS011;8614;48.522;9.206;2022-10-22T12:49:10;2.23;;;2.07;;
16994;SDS011;8614;48.522;9.206;2022-10-22T12:51:40;2.50;;;2.23;;
16994;SDS011;8614;48.522;9.206;2022-10-22T12:54:09;2.87;;;2.20;;
16994;SDS011;8614;48.522;9.206;2022-10-22T12:56:45;7.83;;;7.40;;
16994;SDS011;8614;48.522;9.206;2022-10-22T12:59:17;3.30;;;2.87;;
16994;SDS011;8614;48.522;9.206;2022-10-22T13:01:46;2.60;;;2.30;;
16994;SDS011;8614;48.522;9.206;2022-10-22T13:04:19;2.50;;;2.30;;
16994;SDS011;8614;48.522;9.206;2022-10-22T13:07:03;2.77;;;2.57;;
16994;SDS011;8614;48.522;9.206;2022-10-22T13:09:36;3.90;;;2.23;;
16994;SDS011;8614;48.522;9.206;2022-10-22T13:12:05;2.53;;;2.33;;
16994;SDS011;8614;48.522;9.206;2022-10-22T13:14:37;2.37;;;2.10;;
16994;SDS011;8614;48.522;9.206;2022-10-22T13:17:05;2.47;;;2.27;;
16994;SDS011;8614;48.522;9.206;2022-10-22T13:19:35;3.57;;;3.30;;
16994;SDS011;8614;48.522;9.206;2022-10-22T13:22:04;2.53;;;2.33;;
16994;SDS011;8614;48.522;9.206;2022-10-22T13:24:47;2.30;;;2.10;;
16994;SDS011;8614;48.522;9.206;2022-10-22T13:27:23;2.63;;;2.07;;
16994;SDS011;8614;48.522;9.206;2022-10-22T13:30:00;2.37;;;2.27;;
16994;SDS011;8614;48.522;9.206;2022-10-22T13:32:40;2.93;;;2.30;;
16994;SDS011;8614;48.522;9.206;2022-10-22T13:35:08;2.20;;;2.00;;
16994;SDS011;8614;48.522;9.206;2022-10-22T13:37:41;2.53;;;2.30;;
16994;SDS011;8614;48.522;9.206;2022-10-22T13:40:10;2.50;;;2.30;;
16994;SDS011;8614;48.522;9.206;2022-10-22T13:42:37;4.47;;;4.10;;
16994;SDS011;8614;48.522;9.206;2022-10-22T13:45:06;7.97;;;7.57;;
16994;SDS011;8614;48.522;9.206;2022-10-22T13:47:33;6.93;;;6.43;;
16994;SDS011;8614;48.522;9.206;2022-10-22T13:50:01;3.30;;;3.10;;
16994;SDS011;8614;48.522;9.206;2022-10-22T13:52:40;5.77;;;5.37;;
16994;SDS011;8614;48.522;9.206;2022-10-22T13:55:12;8.23;;;7.73;;
16994;SDS011;8614;48.522;9.206;2022-10-22T13:57:41;6.35;;;5.95;;
16994;SDS011;8614;48.522;9.206;2022-10-22T14:00:13;2.73;;;2.53;;
16994;SDS011;8614;48.522;9.206;2022-10-22T14:02:42;2.40;;;2.20;;
16994;SDS011;8614;48.522;9.206;2022-10-22T14:05:14;7.63;;;7.13;;
16994;SDS011;8614;48.522;9.206;2022-10-22T14:07:42;2.40;;;2.30;;
16994;SDS011;8614;48.522;9.206;2022-10-22T14:10:13;2.15;;;2.05;;
16994;SDS011;8614;48.522;9.206;2022-10-22T14:12:42;2.10;;;2.00;;
16994;SDS011;8614;48.522;9.206;2022-10-22T14:15:11;3.33;;;2.37;;
16994;SDS011;8614;48.522;9.206;2022-10-22T14:17:40;2.57;;;2.20;;
16994;SDS011;8614;48.522;9.206;2022-10-22T14:20:12;2.77;;;2.27;;
16994;SDS011;8614;48.522;9.206;2022-10-22T14:22:42;2.37;;;2.13;;
16994;SDS011;8614;48.522;9.206;2022-10-22T14:25:11;5.47;;;5.03;;
16994;SDS011;8614;48.522;9.206;2022-10-22T14:27:39;2.30;;;2.20;;
16994;SDS011;8614;48.522;9.206;2022-10-22T14:30:07;2.10;;;2.00;;
16994;SDS011;8614;48.522;9.206;2022-10-22T14:32:36;2.30;;;2.10;;
16994;SDS011;8614;48.522;9.206;2022-10-22T14:35:03;4.80;;;4.50;;
16994;SDS011;8614;48.522;9.206;2022-10-22T14:37:30;2.57;;;2.43;;
16994;SDS011;8614;48.522;9.206;2022-10-22T14:39:57;2.10;;;2.00;;
16994;SDS011;8614;48.522;9.206;2022-10-22T14:42:26;6.20;;;5.90;;
16994;SDS011;8614;48.522;9.206;2022-10-22T14:44:53;7.73;;;7.23;;
16994;SDS011;8614;48.522;9.206;2022-10-22T14:47:20;2.10;;;1.90;;
16994;SDS011;8614;48.522;9.206;2022-10-22T14:49:49;2.40;;;2.30;;
16994;SDS011;8614;48.522;9.206;2022-10-22T14:52:17;2.20;;;2.10;;
16994;SDS011;8614;48.522;9.206;2022-10-22T14:54:44;2.70;;;2.50;;
16994;SDS011;8614;48.522;9.206;2022-10-22T14:57:12;3.43;;;3.20;;
16994;SDS011;8614;48.522;9.206;2022-10-22T14:59:41;2.50;;;2.30;;
16994;SDS011;8614;48.522;9.206;2022-10-22T15:02:09;2.57;;;2.37;;
16994;SDS011;8614;48.522;9.206;2022-10-22T15:04:37;2.27;;;2.10;;
16994;SDS011;8614;48.522;9.206;2022-10-22T15:07:05;7.07;;;6.67;;
16994;SDS011;8614;48.522;9.206;2022-10-22T15:09:32;8.50;;;8.00;;
16994;SDS011;8614;48.522;9.206;2022-10-22T15:11:59;9.43;;;8.73;;
16994;SDS011;8614;48.522;9.206;2022-10-22T15:14:26;3.60;;;3.40;;
16994;SDS011;8614;48.522;9.206;2022-10-22T15:16:53;2.40;;;2.20;;